Time,TemperatureF,DewpointF,PressureIn,WindDirection,WindDirectionDegrees,WindSpeedMPH,WindSpeedGustMPH,Humidity,HourlyPrecipIn,Conditions,Clouds,dailyrainin,SoftwareType,DateUTC
2013-07-17 00:00:00,79.0,70.0,-100.00,ENE,74,2.0,-999.0,73,0.00,,,0.00,,2013-07-17 05:00:00,
2013-07-17 00:43:00,79.0,70.0,-100.00,ENE,74,2.0,-999.0,73,0.00,,,0.00,,2013-07-17 05:43:00,
2013-07-17 00:52:00,79.0,70.0,-100.00,ENE,74,2.0,-999.0,73,0.00,,,0.00,,2013-07-17 05:52:00,
2013-07-17 01:00:00,77.0,70.0,-100.00,SSE,156,3.0,-999.0,80,0.00,,,0.00,,2013-07-17 06:00:00,
2013-07-17 01:43:00,77.0,70.0,-100.00,SSE,156,3.0,-999.0,80,0.00,,,0.00,,2013-07-17 06:43:00,
2013-07-17 01:52:00,77.0,70.0,-100.00,SSE,156,3.0,-999.0,80,0.00,,,0.00,,2013-07-17 06:52:00,
2013-07-17 02:00:00,77.0,71.0,-100.00,SE,128,1.0,-999.0,82,0.00,,,0.00,,2013-07-17 07:00:00,
2013-07-17 02:42:00,77.0,71.0,-100.00,SE,128,1.0,-999.0,82,0.00,,,0.00,,2013-07-17 07:42:00,
2013-07-17 02:52:00,77.0,71.0,-100.00,SE,128,1.0,-999.0,82,0.00,,,0.00,,2013-07-17 07:52:00,
2013-07-17 05:00:00,75.0,71.0,-100.00,SE,132,2.0,-999.0,85,0.00,,,0.00,,2013-07-17 10:00:00,
2013-07-17 05:43:00,75.0,71.0,-100.00,SE,132,2.0,-999.0,85,0.00,,,0.00,,2013-07-17 10:43:00,
2013-07-17 05:52:00,75.0,71.0,-100.00,SE,132,2.0,-999.0,85,0.00,,,0.00,,2013-07-17 10:52:00,
2013-07-17 06:00:00,77.0,71.0,-100.00,East,87,4.0,-999.0,83,0.00,,,0.00,,2013-07-17 11:00:00,
2013-07-17 06:42:00,77.0,71.0,-100.00,East,87,4.0,-999.0,83,0.00,,,0.00,,2013-07-17 11:42:00,
2013-07-17 06:52:00,77.0,71.0,-100.00,East,87,4.0,-999.0,83,0.00,,,0.00,,2013-07-17 11:52:00,
2013-07-17 07:00:00,77.0,71.0,-100.00,ESE,102,2.0,-999.0,83,0.00,,,0.00,,2013-07-17 12:00:00,
2013-07-17 07:43:00,77.0,71.0,-100.00,ESE,102,2.0,-999.0,83,0.00,,,0.00,,2013-07-17 12:43:00,
2013-07-17 07:53:00,77.0,71.0,-100.00,ESE,102,2.0,-999.0,83,0.00,,,0.00,,2013-07-17 12:53:00,
2013-07-17 08:00:00,78.0,71.0,-100.00,East,98,5.0,-999.0,79,0.00,,,-99.99,,2013-07-17 13:00:00,
2013-07-17 08:43:00,78.0,71.0,-100.00,East,98,5.0,-999.0,79,0.00,,,-99.99,,2013-07-17 13:43:00,
2013-07-17 08:52:00,78.0,71.0,-100.00,East,98,5.0,-999.0,79,0.00,,,-99.99,,2013-07-17 13:52:00,
2013-07-17 12:00:00,87.0,71.0,-100.00,SSE,148,9.0,-999.0,58,0.00,,,-99.99,,2013-07-17 17:00:00,
2013-07-17 12:43:00,87.0,71.0,-100.00,SSE,148,9.0,-999.0,58,0.00,,,-99.99,,2013-07-17 17:43:00,
2013-07-17 12:52:00,87.0,71.0,-100.00,SSE,148,9.0,-999.0,58,0.00,,,-99.99,,2013-07-17 17:52:00,
2013-07-17 13:00:00,88.0,70.0,-100.00,SSE,160,9.0,-999.0,56,0.00,,,-99.99,,2013-07-17 18:00:00,
2013-07-17 13:43:00,88.0,70.0,-100.00,SSE,160,9.0,-999.0,56,0.00,,,-99.99,,2013-07-17 18:43:00,
2013-07-17 13:52:00,88.0,70.0,-100.00,SSE,160,9.0,-999.0,56,0.00,,,-99.99,,2013-07-17 18:52:00,
2013-07-17 14:00:00,90.0,71.0,-100.00,SE,146,8.0,-999.0,54,0.00,,,0.00,,2013-07-17 19:00:00,
2013-07-17 14:43:00,90.0,71.0,-100.00,SE,146,8.0,-999.0,54,0.00,,,0.00,,2013-07-17 19:43:00,
2013-07-17 14:53:00,90.0,71.0,-100.00,SE,146,8.0,-999.0,54,0.00,,,0.00,,2013-07-17 19:53:00,
2013-07-17 15:00:00,92.0,69.0,-100.00,ESE,106,9.0,-999.0,48,0.00,,,0.00,,2013-07-17 20:00:00,
2013-07-17 15:43:00,92.0,69.0,-100.00,ESE,106,9.0,-999.0,48,0.00,,,0.00,,2013-07-17 20:43:00,
2013-07-17 15:53:00,92.0,69.0,-100.00,ESE,106,9.0,-999.0,48,0.00,,,0.00,,2013-07-17 20:53:00,
2013-07-17 18:00:00,92.0,70.0,-100.00,SSE,167,9.0,-999.0,49,0.00,,,-99.99,,2013-07-17 23:00:00,
2013-07-17 18:43:00,92.0,70.0,-100.00,SSE,167,9.0,-999.0,49,0.00,,,-99.99,,2013-07-17 23:43:00,
2013-07-17 18:52:00,92.0,70.0,-100.00,SSE,167,9.0,-999.0,49,0.00,,,-99.99,,2013-07-17 23:52:00,
2013-07-17 20:00:00,88.0,70.0,-100.00,SSE,155,2.0,-999.0,56,0.00,,,0.00,,2013-07-18 01:00:00,
2013-07-17 20:32:00,88.0,70.0,-100.00,SSE,155,2.0,-999.0,56,0.00,,,0.00,,2013-07-18 01:32:00,
2013-07-17 20:43:00,88.0,70.0,-100.00,SSE,155,2.0,-999.0,56,0.00,,,0.00,,2013-07-18 01:43:00,
2013-07-17 20:53:00,88.0,70.0,-100.00,SSE,155,2.0,-999.0,56,0.00,,,0.00,,2013-07-18 01:53:00,
2013-07-17 21:00:00,86.0,71.0,-100.00,East,101,2.0,-999.0,62,0.00,,,0.00,,2013-07-18 02:00:00,
2013-07-17 21:43:00,86.0,71.0,-100.00,East,101,2.0,-999.0,62,0.00,,,0.00,,2013-07-18 02:43:00,
2013-07-17 21:52:00,86.0,71.0,-100.00,East,101,2.0,-999.0,62,0.00,,,0.00,,2013-07-18 02:52:00,
2013-07-17 22:00:00,83.0,70.0,-100.00,ESE,113,2.0,-999.0,66,0.00,,,0.00,,2013-07-18 03:00:00,
2013-07-17 22:43:00,83.0,70.0,-100.00,ESE,113,2.0,-999.0,66,0.00,,,0.00,,2013-07-18 03:43:00,
2013-07-17 22:52:00,83.0,70.0,-100.00,ESE,113,2.0,-999.0,66,0.00,,,0.00,,2013-07-18 03:52:00,